sensor_id;sensor_type;location;lat;lon;timestamp;temperature;humidity
38726;DHT22;24474;48.906;8.808;2023-02-01T00:01:48;4.60;99.90
38726;DHT22;24474;48.906;8.808;2023-02-01T00:04:14;4.70;99.90
38726;DHT22;24474;48.906;8.808;2023-02-01T00:06:40;4.70;99.90
38726;DHT22;24474;48.906;8.808;2023-02-01T00:09:05;4.70;99.90
38726;DHT22;24474;48.906;8.808;2023-02-01T00:11:31;4.60;99.90
38726;DHT22;24474;48.906;8.808;2023-02-01T00:13:57;4.70;99.90
38726;DHT22;24474;48.906;8.808;2023-02-01T00:16:27;4.70;99.90
38726;DHT22;24474;48.906;8.808;2023-02-01T00:19:09;4.70;99.90
38726;DHT22;24474;48.906;8.808;2023-02-01T00:21:35;4.70;99.90
38726;DHT22;24474;48.906;8.808;2023-02-01T00:24:00;4.70;99.90
38726;DHT22;24474;48.906;8.808;2023-02-01T00:26:41;4.70;99.90
38726;DHT22;24474;48.906;8.808;2023-02-01T00:29:12;4.70;99.90
38726;DHT22;24474;48.906;8.808;2023-02-01T00:31:43;4.70;99.90
38726;DHT22;24474;48.906;8.808;2023-02-01T00:34:12;4.70;99.90
38726;DHT22;24474;48.906;8.808;2023-02-01T00:36:41;4.70;99.90
38726;DHT22;24474;48.906;8.808;2023-02-01T00:39:06;4.70;99.90
38726;DHT22;24474;48.906;8.808;2023-02-01T00:41:32;4.70;99.90
38726;DHT22;24474;48.906;8.808;2023-02-01T00:43:58;4.70;99.90
38726;DHT22;24474;48.906;8.808;2023-02-01T00:46:25;4.70;99.90
38726;DHT22;24474;48.906;8.808;2023-02-01T00:48:51;4.80;99.90
38726;DHT22;24474;48.906;8.808;2023-02-01T00:51:22;4.80;99.90
38726;DHT22;24474;48.906;8.808;2023-02-01T00:53:48;4.80;99.90
38726;DHT22;24474;48.906;8.808;2023-02-01T00:56:15;4.70;99.90
38726;DHT22;24474;48.906;8.808;2023-02-01T00:58:43;4.80;99.90
38726;DHT22;24474;48.906;8.808;2023-02-01T01:01:19;4.80;99.90
38726;DHT22;24474;48.906;8.808;2023-02-01T01:03:54;4.80;99.90
38726;DHT22;24474;48.906;8.808;2023-02-01T01:09:34;4.80;99.90
38726;DHT22;24474;48.906;8.808;2023-02-01T01:12:01;4.80;99.90
38726;DHT22;24474;48.906;8.808;2023-02-01T01:14:32;4.80;99.90
38726;DHT22;24474;48.906;8.808;2023-02-01T01:16:58;4.80;99.90
38726;DHT22;24474;48.906;8.808;2023-02-01T01:19:25;4.80;99.90
38726;DHT22;24474;48.906;8.808;2023-02-01T01:21:52;4.90;99.90
38726;DHT22;24474;48.906;8.808;2023-02-01T01:24:19;4.90;99.90
38726;DHT22;24474;48.906;8.808;2023-02-01T01:26:45;4.90;99.90
38726;DHT22;24474;48.906;8.808;2023-02-01T01:29:12;4.90;99.90
38726;DHT22;24474;48.906;8.808;2023-02-01T01:31:39;4.90;99.90
38726;DHT22;24474;48.906;8.808;2023-02-01T01:34:07;4.90;99.90
38726;DHT22;24474;48.906;8.808;2023-02-01T01:36:33;4.90;99.90
38726;DHT22;24474;48.906;8.808;2023-02-01T01:38:59;5.00;99.90
38726;DHT22;24474;48.906;8.808;2023-02-01T01:41:28;4.90;99.90
38726;DHT22;24474;48.906;8.808;2023-02-01T01:44:06;5.00;99.90
38726;DHT22;24474;48.906;8.808;2023-02-01T01:46:36;5.00;99.90
38726;DHT22;24474;48.906;8.808;2023-02-01T01:49:16;5.00;99.90
38726;DHT22;24474;48.906;8.808;2023-02-01T01:51:55;4.90;99.90
38726;DHT22;24474;48.906;8.808;2023-02-01T01:54:37;5.00;99.90
38726;DHT22;24474;48.906;8.808;2023-02-01T01:57:11;5.00;99.90
38726;DHT22;24474;48.906;8.808;2023-02-01T01:59:39;5.00;99.90
38726;DHT22;24474;48.906;8.808;2023-02-01T02:02:08;4.90;99.90
38726;DHT22;24474;48.906;8.808;2023-02-01T02:04:36;5.00;99.90
38726;DHT22;24474;48.906;8.808;2023-02-01T02:07:08;5.00;99.90
38726;DHT22;24474;48.906;8.808;2023-02-01T02:09:36;5.00;99.90
38726;DHT22;24474;48.906;8.808;2023-02-01T02:12:03;5.00;99.90
38726;DHT22;24474;48.906;8.808;2023-02-01T02:14:29;5.00;99.90
38726;DHT22;24474;48.906;8.808;2023-02-01T02:28:16;5.00;99.90
38726;DHT22;24474;48.906;8.808;2023-02-01T02:37:00;5.00;99.90
38726;DHT22;24474;48.906;8.808;2023-02-01T02:39:57;5.00;99.90
38726;DHT22;24474;48.906;8.808;2023-02-01T02:45:47;5.10;99.90
38726;DHT22;24474;48.906;8.808;2023-02-01T02:48:44;5.00;99.90
38726;DHT22;24474;48.906;8.808;2023-02-01T02:51:22;5.00;99.90
38726;DHT22;24474;48.906;8.808;2023-02-01T02:54:22;5.00;99.90
38726;DHT22;24474;48.906;8.808;2023-02-01T02:57:10;5.00;99.90
38726;DHT22;24474;48.906;8.808;2023-02-01T02:59:57;5.10;99.90
38726;DHT22;24474;48.906;8.808;2023-02-01T03:02:42;5.10;99.90
38726;DHT22;24474;48.906;8.808;2023-02-01T03:05:40;5.00;99.90
38726;DHT22;24474;48.906;8.808;2023-02-01T03:08:16;5.00;99.90
38726;DHT22;24474;48.906;8.808;2023-02-01T03:11:04;5.10;99.90
38726;DHT22;24474;48.906;8.808;2023-02-01T03:13:47;5.00;99.90
38726;DHT22;24474;48.906;8.808;2023-02-01T03:16:36;5.10;99.90
38726;DHT22;24474;48.906;8.808;2023-02-01T03:22:08;5.10;99.90
38726;DHT22;24474;48.906;8.808;2023-02-01T03:25:00;5.10;99.90
38726;DHT22;24474;48.906;8.808;2023-02-01T03:27:32;5.10;99.90
38726;DHT22;24474;48.906;8.808;2023-02-01T03:32:31;5.10;99.90
38726;DHT22;24474;48.906;8.808;2023-02-01T03:35:17;5.10;99.90
38726;DHT22;24474;48.906;8.808;2023-02-01T03:37:44;5.10;99.90
38726;DHT22;24474;48.906;8.808;2023-02-01T03:40:11;5.10;99.90
38726;DHT22;24474;48.906;8.808;2023-02-01T03:42:42;5.10;99.90
38726;DHT22;24474;48.906;8.808;2023-02-01T03:45:13;5.10;99.90
38726;DHT22;24474;48.906;8.808;2023-02-01T03:47:45;5.10;99.90
38726;DHT22;24474;48.906;8.808;2023-02-01T03:50:15;5.10;99.90
38726;DHT22;24474;48.906;8.808;2023-02-01T03:52:48;5.10;99.90
38726;DHT22;24474;48.906;8.808;2023-02-01T03:55:18;5.10;99.90
38726;DHT22;24474;48.906;8.808;2023-02-01T03:58:12;5.10;99.90
38726;DHT22;24474;48.906;8.808;2023-02-01T04:00:39;5.10;99.90
38726;DHT22;24474;48.906;8.808;2023-02-01T04:03:06;5.10;99.90
38726;DHT22;24474;48.906;8.808;2023-02-01T04:05:32;5.10;99.90
38726;DHT22;24474;48.906;8.808;2023-02-01T04:07:58;5.10;99.90
38726;DHT22;24474;48.906;8.808;2023-02-01T04:10:24;5.10;99.90
38726;DHT22;24474;48.906;8.808;2023-02-01T04:12:51;5.10;99.90
38726;DHT22;24474;48.906;8.808;2023-02-01T04:15:17;5.10;99.90
38726;DHT22;24474;48.906;8.808;2023-02-01T04:17:43;5.10;99.90
38726;DHT22;24474;48.906;8.808;2023-02-01T04:20:10;5.20;99.90
38726;DHT22;24474;48.906;8.808;2023-02-01T04:22:36;5.10;99.90
38726;DHT22;24474;48.906;8.808;2023-02-01T04:25:01;5.20;99.90
38726;DHT22;24474;48.906;8.808;2023-02-01T04:27:27;5.20;99.90
38726;DHT22;24474;48.906;8.808;2023-02-01T04:29:53;5.20;99.90
38726;DHT22;24474;48.906;8.808;2023-02-01T04:32:19;5.20;99.90
38726;DHT22;24474;48.906;8.808;2023-02-01T04:34:46;5.20;99.90
38726;DHT22;24474;48.906;8.808;2023-02-01T04:37:11;5.20;99.90
38726;DHT22;24474;48.906;8.808;2023-02-01T04:39:37;5.20;99.90
38726;DHT22;24474;48.906;8.808;2023-02-01T04:42:03;5.20;99.90
38726;DHT22;24474;48.906;8.808;2023-02-01T04:44:29;5.20;99.90
38726;DHT22;24474;48.906;8.808;2023-02-01T04:46:54;5.20;99.90
38726;DHT22;24474;48.906;8.808;2023-02-01T04:49:20;5.20;99.90
38726;DHT22;24474;48.906;8.808;2023-02-01T04:51:50;5.10;99.90
38726;DHT22;24474;48.906;8.808;2023-02-01T04:54:16;5.10;99.90
38726;DHT22;24474;48.906;8.808;2023-02-01T04:56:42;5.10;99.90
38726;DHT22;24474;48.906;8.808;2023-02-01T04:59:07;5.10;99.90
38726;DHT22;24474;48.906;8.808;2023-02-01T05:01:33;5.10;99.90
38726;DHT22;24474;48.906;8.808;2023-02-01T05:03:59;5.10;99.90
38726;DHT22;24474;48.906;8.808;2023-02-01T05:06:24;5.20;99.90
38726;DHT22;24474;48.906;8.808;2023-02-01T05:08:50;5.10;99.90
38726;DHT22;24474;48.906;8.808;2023-02-01T05:11:16;5.10;99.90
38726;DHT22;24474;48.906;8.808;2023-02-01T05:14:00;5.10;99.90
38726;DHT22;24474;48.906;8.808;2023-02-01T05:16:26;5.10;99.90
38726;DHT22;24474;48.906;8.808;2023-02-01T05:18:53;5.10;99.90
38726;DHT22;24474;48.906;8.808;2023-02-01T05:21:18;5.10;99.90
38726;DHT22;24474;48.906;8.808;2023-02-01T05:23:44;5.10;99.90
38726;DHT22;24474;48.906;8.808;2023-02-01T05:26:28;5.10;99.90
38726;DHT22;24474;48.906;8.808;2023-02-01T05:28:54;5.10;99.90
38726;DHT22;24474;48.906;8.808;2023-02-01T05:31:20;5.10;99.90
38726;DHT22;24474;48.906;8.808;2023-02-01T05:33:47;5.10;99.90
38726;DHT22;24474;48.906;8.808;2023-02-01T05:36:14;5.10;99.90
38726;DHT22;24474;48.906;8.808;2023-02-01T05:38:39;5.10;99.90
38726;DHT22;24474;48.906;8.808;2023-02-01T05:41:05;5.00;99.90
38726;DHT22;24474;48.906;8.808;2023-02-01T05:43:30;4.90;99.90
38726;DHT22;24474;48.906;8.808;2023-02-01T05:45:56;4.90;99.90
38726;DHT22;24474;48.906;8.808;2023-02-01T05:48:23;4.90;99.90
38726;DHT22;24474;48.906;8.808;2023-02-01T05:50:50;4.90;99.90
38726;DHT22;24474;48.906;8.808;2023-02-01T05:53:16;4.90;99.90
38726;DHT22;24474;48.906;8.808;2023-02-01T05:55:43;4.80;99.90
38726;DHT22;24474;48.906;8.808;2023-02-01T05:58:09;4.80;99.90
38726;DHT22;24474;48.906;8.808;2023-02-01T06:00:36;4.90;99.90
38726;DHT22;24474;48.906;8.808;2023-02-01T06:03:04;4.90;99.90
38726;DHT22;24474;48.906;8.808;2023-02-01T06:05:30;4.90;99.90
38726;DHT22;24474;48.906;8.808;2023-02-01T06:07:56;4.90;99.90
38726;DHT22;24474;48.906;8.808;2023-02-01T06:10:22;4.90;99.90
38726;DHT22;24474;48.906;8.808;2023-02-01T06:12:48;4.90;99.90
38726;DHT22;24474;48.906;8.808;2023-02-01T06:15:16;5.00;99.90
38726;DHT22;24474;48.906;8.808;2023-02-01T06:17:46;5.00;99.90
38726;DHT22;24474;48.906;8.808;2023-02-01T06:20:14;5.00;99.90
38726;DHT22;24474;48.906;8.808;2023-02-01T06:22:40;5.00;99.90
38726;DHT22;24474;48.906;8.808;2023-02-01T06:25:08;5.00;99.90
38726;DHT22;24474;48.906;8.808;2023-02-01T06:27:35;5.00;99.90
38726;DHT22;24474;48.906;8.808;2023-02-01T06:30:04;5.00;99.90
38726;DHT22;24474;48.906;8.808;2023-02-01T06:32:30;5.00;99.90
38726;DHT22;24474;48.906;8.808;2023-02-01T06:34:57;5.00;99.90
38726;DHT22;24474;48.906;8.808;2023-02-01T06:37:25;5.00;99.90
38726;DHT22;24474;48.906;8.808;2023-02-01T06:39:53;5.00;99.90
38726;DHT22;24474;48.906;8.808;2023-02-01T06:42:18;5.00;99.90
38726;DHT22;24474;48.906;8.808;2023-02-01T06:44:44;5.00;99.90
38726;DHT22;24474;48.906;8.808;2023-02-01T06:47:09;5.00;99.90
38726;DHT22;24474;48.906;8.808;2023-02-01T06:49:36;5.00;99.90
38726;DHT22;24474;48.906;8.808;2023-02-01T06:52:02;5.00;99.90
38726;DHT22;24474;48.906;8.808;2023-02-01T06:54:28;5.10;99.90
38726;DHT22;24474;48.906;8.808;2023-02-01T06:56:54;5.00;99.90
38726;DHT22;24474;48.906;8.808;2023-02-01T06:59:20;5.00;99.90
38726;DHT22;24474;48.906;8.808;2023-02-01T07:01:48;5.00;99.90
38726;DHT22;24474;48.906;8.808;2023-02-01T07:04:13;5.00;99.90
38726;DHT22;24474;48.906;8.808;2023-02-01T07:06:39;5.00;99.90
38726;DHT22;24474;48.906;8.808;2023-02-01T07:09:07;5.10;99.90
38726;DHT22;24474;48.906;8.808;2023-02-01T07:11:36;5.10;99.90
38726;DHT22;24474;48.906;8.808;2023-02-01T07:14:04;5.10;99.90
38726;DHT22;24474;48.906;8.808;2023-02-01T07:16:29;5.10;99.90
38726;DHT22;24474;48.906;8.808;2023-02-01T07:18:56;5.10;99.90
38726;DHT22;24474;48.906;8.808;2023-02-01T07:21:22;5.10;99.90
38726;DHT22;24474;48.906;8.808;2023-02-01T07:23:47;5.20;99.90
38726;DHT22;24474;48.906;8.808;2023-02-01T07:26:14;5.20;99.90
38726;DHT22;24474;48.906;8.808;2023-02-01T07:28:40;5.20;99.90
38726;DHT22;24474;48.906;8.808;2023-02-01T07:31:12;5.20;99.90
38726;DHT22;24474;48.906;8.808;2023-02-01T07:33:41;5.20;99.90
38726;DHT22;24474;48.906;8.808;2023-02-01T07:36:11;5.20;99.90
38726;DHT22;24474;48.906;8.808;2023-02-01T07:38:38;5.20;99.90
38726;DHT22;24474;48.906;8.808;2023-02-01T07:41:06;5.20;99.90
38726;DHT22;24474;48.906;8.808;2023-02-01T07:43:35;5.20;99.90
38726;DHT22;24474;48.906;8.808;2023-02-01T07:46:03;5.20;99.90
38726;DHT22;24474;48.906;8.808;2023-02-01T07:48:30;5.20;99.90
38726;DHT22;24474;48.906;8.808;2023-02-01T07:51:10;5.20;99.90
38726;DHT22;24474;48.906;8.808;2023-02-01T07:53:37;5.20;99.90
38726;DHT22;24474;48.906;8.808;2023-02-01T07:56:03;5.20;99.90
38726;DHT22;24474;48.906;8.808;2023-02-01T07:58:29;5.10;99.90
38726;DHT22;24474;48.906;8.808;2023-02-01T08:00:55;5.20;99.90
38726;DHT22;24474;48.906;8.808;2023-02-01T08:03:42;5.10;99.90
38726;DHT22;24474;48.906;8.808;2023-02-01T08:06:07;5.10;99.90
38726;DHT22;24474;48.906;8.808;2023-02-01T08:08:34;5.10;99.90
38726;DHT22;24474;48.906;8.808;2023-02-01T08:11:02;5.10;99.90
38726;DHT22;24474;48.906;8.808;2023-02-01T08:13:30;5.10;99.90
38726;DHT22;24474;48.906;8.808;2023-02-01T08:16:02;5.10;99.90
38726;DHT22;24474;48.906;8.808;2023-02-01T08:18:30;5.10;99.90
38726;DHT22;24474;48.906;8.808;2023-02-01T08:20:56;5.10;99.90
38726;DHT22;24474;48.906;8.808;2023-02-01T08:23:23;5.10;99.90
38726;DHT22;24474;48.906;8.808;2023-02-01T08:25:50;5.20;99.90
38726;DHT22;24474;48.906;8.808;2023-02-01T08:28:16;5.30;99.90
38726;DHT22;24474;48.906;8.808;2023-02-01T08:30:42;5.30;99.90
38726;DHT22;24474;48.906;8.808;2023-02-01T08:33:07;5.30;99.90
38726;DHT22;24474;48.906;8.808;2023-02-01T08:35:38;5.30;99.90
38726;DHT22;24474;48.906;8.808;2023-02-01T08:38:07;5.40;99.90
38726;DHT22;24474;48.906;8.808;2023-02-01T08:40:35;5.40;99.90
38726;DHT22;24474;48.906;8.808;2023-02-01T08:43:02;5.40;99.90
38726;DHT22;24474;48.906;8.808;2023-02-01T08:45:28;5.40;99.90
38726;DHT22;24474;48.906;8.808;2023-02-01T08:47:57;5.40;99.90
38726;DHT22;24474;48.906;8.808;2023-02-01T08:50:24;5.40;99.90
38726;DHT22;24474;48.906;8.808;2023-02-01T08:52:50;5.40;99.90
38726;DHT22;24474;48.906;8.808;2023-02-01T08:55:18;5.40;99.90
38726;DHT22;24474;48.906;8.808;2023-02-01T08:57:45;5.30;99.90
38726;DHT22;24474;48.906;8.808;2023-02-01T09:00:13;5.30;99.90
38726;DHT22;24474;48.906;8.808;2023-02-01T09:02:39;5.20;99.90
38726;DHT22;24474;48.906;8.808;2023-02-01T09:05:08;5.20;99.90
38726;DHT22;24474;48.906;8.808;2023-02-01T09:07:34;5.20;99.90
38726;DHT22;24474;48.906;8.808;2023-02-01T09:10:11;5.20;99.90
38726;DHT22;24474;48.906;8.808;2023-02-01T09:12:36;5.30;99.90
38726;DHT22;24474;48.906;8.808;2023-02-01T09:15:06;5.30;99.90
38726;DHT22;24474;48.906;8.808;2023-02-01T09:17:32;5.30;99.90
38726;DHT22;24474;48.906;8.808;2023-02-01T09:20:02;6.10;99.90
38726;DHT22;24474;48.906;8.808;2023-02-01T09:22:28;5.40;99.90
38726;DHT22;24474;48.906;8.808;2023-02-01T09:24:53;5.50;99.90
38726;DHT22;24474;48.906;8.808;2023-02-01T09:27:22;5.40;99.90
38726;DHT22;24474;48.906;8.808;2023-02-01T09:29:50;5.50;99.90
38726;DHT22;24474;48.906;8.808;2023-02-01T09:32:30;5.60;99.90
38726;DHT22;24474;48.906;8.808;2023-02-01T09:34:57;5.60;99.90
38726;DHT22;24474;48.906;8.808;2023-02-01T09:37:26;5.60;99.90
38726;DHT22;24474;48.906;8.808;2023-02-01T09:39:57;5.70;99.90
38726;DHT22;24474;48.906;8.808;2023-02-01T09:45:51;5.70;99.90
38726;DHT22;24474;48.906;8.808;2023-02-01T09:48:24;5.60;99.90
38726;DHT22;24474;48.906;8.808;2023-02-01T09:50:58;5.60;99.90
38726;DHT22;24474;48.906;8.808;2023-02-01T09:53:55;5.70;99.90
38726;DHT22;24474;48.906;8.808;2023-02-01T09:56:46;5.70;99.90
38726;DHT22;24474;48.906;8.808;2023-02-01T09:59:53;5.70;99.90
38726;DHT22;24474;48.906;8.808;2023-02-01T10:02:26;5.70;99.90
38726;DHT22;24474;48.906;8.808;2023-02-01T10:04:58;5.70;99.90
38726;DHT22;24474;48.906;8.808;2023-02-01T10:10:48;5.90;99.90
38726;DHT22;24474;48.906;8.808;2023-02-01T10:16:09;6.00;99.90
38726;DHT22;24474;48.906;8.808;2023-02-01T10:19:17;6.00;99.90
38726;DHT22;24474;48.906;8.808;2023-02-01T10:21:58;6.00;99.90
38726;DHT22;24474;48.906;8.808;2023-02-01T10:24:49;5.90;99.90
38726;DHT22;24474;48.906;8.808;2023-02-01T10:27:48;6.00;99.90
38726;DHT22;24474;48.906;8.808;2023-02-01T10:30:21;5.90;99.90
38726;DHT22;24474;48.906;8.808;2023-02-01T10:32:50;5.90;99.90
38726;DHT22;24474;48.906;8.808;2023-02-01T10:35:24;5.90;99.90
38726;DHT22;24474;48.906;8.808;2023-02-01T10:37:52;5.90;99.90
38726;DHT22;24474;48.906;8.808;2023-02-01T10:40:25;6.00;99.90
38726;DHT22;24474;48.906;8.808;2023-02-01T10:42:57;6.00;99.90
38726;DHT22;24474;48.906;8.808;2023-02-01T10:45:26;6.00;99.90
38726;DHT22;24474;48.906;8.808;2023-02-01T10:48:00;6.10;99.90
38726;DHT22;24474;48.906;8.808;2023-02-01T10:51:00;6.10;99.90
38726;DHT22;24474;48.906;8.808;2023-02-01T10:53:50;6.10;99.90
38726;DHT22;24474;48.906;8.808;2023-02-01T10:56:23;5.80;99.90
38726;DHT22;24474;48.906;8.808;2023-02-01T10:58:49;6.10;99.90
38726;DHT22;24474;48.906;8.808;2023-02-01T11:01:31;6.10;99.90
38726;DHT22;24474;48.906;8.808;2023-02-01T11:04:00;6.10;99.90
38726;DHT22;24474;48.906;8.808;2023-02-01T11:09:10;6.10;99.90
38726;DHT22;24474;48.906;8.808;2023-02-01T11:11:58;6.20;99.90
38726;DHT22;24474;48.906;8.808;2023-02-01T11:14:35;6.30;99.90
38726;DHT22;24474;48.906;8.808;2023-02-01T11:20:00;6.30;99.90
38726;DHT22;24474;48.906;8.808;2023-02-01T11:22:27;6.40;99.90
38726;DHT22;24474;48.906;8.808;2023-02-01T11:24:55;6.30;99.90
38726;DHT22;24474;48.906;8.808;2023-02-01T11:27:24;6.30;99.90
38726;DHT22;24474;48.906;8.808;2023-02-01T11:29:58;6.10;99.90
38726;DHT22;24474;48.906;8.808;2023-02-01T11:32:25;6.20;99.90
38726;DHT22;24474;48.906;8.808;2023-02-01T11:37:39;6.30;99.90
38726;DHT22;24474;48.906;8.808;2023-02-01T11:43:29;6.40;99.90
38726;DHT22;24474;48.906;8.808;2023-02-01T11:46:00;6.40;99.90
38726;DHT22;24474;48.906;8.808;2023-02-01T11:48:30;6.40;99.90
38726;DHT22;24474;48.906;8.808;2023-02-01T12:05:58;6.30;99.90
38726;DHT22;24474;48.906;8.808;2023-02-01T12:11:31;6.30;99.90
38726;DHT22;24474;48.906;8.808;2023-02-01T12:17:16;6.30;99.90
38726;DHT22;24474;48.906;8.808;2023-02-01T12:23:10;6.30;99.90
38726;DHT22;24474;48.906;8.808;2023-02-01T12:43:36;6.10;99.90
38726;DHT22;24474;48.906;8.808;2023-02-01T12:46:08;6.20;99.90
38726;DHT22;24474;48.906;8.808;2023-02-01T12:51:39;6.10;99.90
38726;DHT22;24474;48.906;8.808;2023-02-01T12:57:02;5.90;99.90
38726;DHT22;24474;48.906;8.808;2023-02-01T12:59:48;5.90;99.90
38726;DHT22;24474;48.906;8.808;2023-02-01T13:08:30;6.00;99.90
38726;DHT22;24474;48.906;8.808;2023-02-01T13:14:58;6.00;99.90
38726;DHT22;24474;48.906;8.808;2023-02-01T13:17:22;6.00;99.90
38726;DHT22;24474;48.906;8.808;2023-02-01T13:20:05;6.10;99.90
38726;DHT22;24474;48.906;8.808;2023-02-01T13:22:48;6.10;99.90
38726;DHT22;24474;48.906;8.808;2023-02-01T13:25:46;6.00;99.90
38726;DHT22;24474;48.906;8.808;2023-02-01T13:28:54;6.10;99.90
38726;DHT22;24474;48.906;8.808;2023-02-01T13:38:31;6.10;99.90
38726;DHT22;24474;48.906;8.808;2023-02-01T13:41:25;6.10;99.90
38726;DHT22;24474;48.906;8.808;2023-02-01T13:44:24;6.10;99.90
38726;DHT22;24474;48.906;8.808;2023-02-01T13:46:47;6.10;99.90
38726;DHT22;24474;48.906;8.808;2023-02-01T13:49:24;6.10;99.90
38726;DHT22;24474;48.906;8.808;2023-02-01T13:52:02;6.00;99.90
38726;DHT22;24474;48.906;8.808;2023-02-01T13:54:40;6.10;99.90
38726;DHT22;24474;48.906;8.808;2023-02-01T13:57:35;6.10;99.90
38726;DHT22;24474;48.906;8.808;2023-02-01T14:00:20;6.00;99.90
38726;DHT22;24474;48.906;8.808;2023-02-01T14:11:52;6.00;99.90
38726;DHT22;24474;48.906;8.808;2023-02-01T14:19:37;6.10;99.90
38726;DHT22;24474;48.906;8.808;2023-02-01T14:24:57;6.10;99.90
38726;DHT22;24474;48.906;8.808;2023-02-01T14:27:30;6.10;99.90
38726;DHT22;24474;48.906;8.808;2023-02-01T14:30:07;6.70;99.90
38726;DHT22;24474;48.906;8.808;2023-02-01T14:32:39;6.00;99.90
38726;DHT22;24474;48.906;8.808;2023-02-01T14:35:20;6.00;99.90
38726;DHT22;24474;48.906;8.808;2023-02-01T14:38:00;5.70;99.90
38726;DHT22;24474;48.906;8.808;2023-02-01T14:40:29;6.00;99.90
38726;DHT22;24474;48.906;8.808;2023-02-01T14:42:59;6.00;99.90
38726;DHT22;24474;48.906;8.808;2023-02-01T14:50:39;6.00;99.90
38726;DHT22;24474;48.906;8.808;2023-02-01T14:55:57;6.00;99.90
38726;DHT22;24474;48.906;8.808;2023-02-01T15:04:06;6.60;99.90
38726;DHT22;24474;48.906;8.808;2023-02-01T15:14:31;6.10;99.90
38726;DHT22;24474;48.906;8.808;2023-02-01T15:16:59;6.10;99.90
38726;DHT22;24474;48.906;8.808;2023-02-01T15:19:30;6.10;99.90
38726;DHT22;24474;48.906;8.808;2023-02-01T15:22:05;6.10;99.90
38726;DHT22;24474;48.906;8.808;2023-02-01T15:24:38;6.10;99.90
38726;DHT22;24474;48.906;8.808;2023-02-01T15:27:09;5.90;99.90
38726;DHT22;24474;48.906;8.808;2023-02-01T15:29:37;6.10;99.90
38726;DHT22;24474;48.906;8.808;2023-02-01T15:32:31;6.10;99.90
38726;DHT22;24474;48.906;8.808;2023-02-01T15:35:03;6.10;99.90
38726;DHT22;24474;48.906;8.808;2023-02-01T15:37:35;6.10;99.90
38726;DHT22;24474;48.906;8.808;2023-02-01T15:43:02;6.00;99.90
38726;DHT22;24474;48.906;8.808;2023-02-01T15:45:34;6.00;99.90
38726;DHT22;24474;48.906;8.808;2023-02-01T15:48:21;6.00;99.90
38726;DHT22;24474;48.906;8.808;2023-02-01T15:50:54;5.90;99.90
38726;DHT22;24474;48.906;8.808;2023-02-01T15:53:24;5.90;99.90
38726;DHT22;24474;48.906;8.808;2023-02-01T15:56:06;5.90;99.90
38726;DHT22;24474;48.906;8.808;2023-02-01T15:58:37;5.90;99.90
38726;DHT22;24474;48.906;8.808;2023-02-01T16:01:20;5.90;99.90
38726;DHT22;24474;48.906;8.808;2023-02-01T16:04:22;5.90;99.90
38726;DHT22;24474;48.906;8.808;2023-02-01T16:07:03;6.50;99.90
38726;DHT22;24474;48.906;8.808;2023-02-01T16:10:03;5.90;99.90
38726;DHT22;24474;48.906;8.808;2023-02-01T16:12:47;5.90;99.90
38726;DHT22;24474;48.906;8.808;2023-02-01T16:15:18;5.90;99.90
38726;DHT22;24474;48.906;8.808;2023-02-01T16:17:47;5.90;99.90
38726;DHT22;24474;48.906;8.808;2023-02-01T16:20:25;5.90;99.90
38726;DHT22;24474;48.906;8.808;2023-02-01T16:22:53;5.90;99.90
38726;DHT22;24474;48.906;8.808;2023-02-01T16:25:23;5.90;99.90
38726;DHT22;24474;48.906;8.808;2023-02-01T16:27:55;5.90;99.90
38726;DHT22;24474;48.906;8.808;2023-02-01T16:30:23;7.60;99.90
38726;DHT22;24474;48.906;8.808;2023-02-01T16:33:00;5.90;99.90
38726;DHT22;24474;48.906;8.808;2023-02-01T16:35:36;5.80;99.90
38726;DHT22;24474;48.906;8.808;2023-02-01T16:38:13;5.90;99.90
38726;DHT22;24474;48.906;8.808;2023-02-01T16:40:50;5.90;99.90
38726;DHT22;24474;48.906;8.808;2023-02-01T16:43:21;5.90;99.90
38726;DHT22;24474;48.906;8.808;2023-02-01T16:45:55;5.90;99.90
38726;DHT22;24474;48.906;8.808;2023-02-01T16:48:37;5.90;99.90
38726;DHT22;24474;48.906;8.808;2023-02-01T16:51:11;5.90;99.90
38726;DHT22;24474;48.906;8.808;2023-02-01T16:53:39;5.80;99.90
38726;DHT22;24474;48.906;8.808;2023-02-01T16:56:13;5.90;99.90
38726;DHT22;24474;48.906;8.808;2023-02-01T16:58:40;5.90;99.90
38726;DHT22;24474;48.906;8.808;2023-02-01T17:01:11;5.80;99.90
38726;DHT22;24474;48.906;8.808;2023-02-01T17:03:38;5.90;99.90
38726;DHT22;24474;48.906;8.808;2023-02-01T17:06:04;5.90;99.90
38726;DHT22;24474;48.906;8.808;2023-02-01T17:08:36;5.90;99.90
38726;DHT22;24474;48.906;8.808;2023-02-01T17:11:03;5.90;99.90
38726;DHT22;24474;48.906;8.808;2023-02-01T17:13:30;5.90;99.90
38726;DHT22;24474;48.906;8.808;2023-02-01T17:16:19;5.90;99.90
38726;DHT22;24474;48.906;8.808;2023-02-01T17:19:06;5.90;99.90
38726;DHT22;24474;48.906;8.808;2023-02-01T17:21:47;5.90;99.90
38726;DHT22;24474;48.906;8.808;2023-02-01T17:24:25;5.90;99.90
38726;DHT22;24474;48.906;8.808;2023-02-01T17:26:51;5.90;99.90
38726;DHT22;24474;48.906;8.808;2023-02-01T17:29:17;5.90;99.90
38726;DHT22;24474;48.906;8.808;2023-02-01T17:31:45;5.80;99.90
38726;DHT22;24474;48.906;8.808;2023-02-01T17:34:14;5.80;99.90
38726;DHT22;24474;48.906;8.808;2023-02-01T17:36:40;5.80;99.90
38726;DHT22;24474;48.906;8.808;2023-02-01T17:39:07;5.80;99.90
38726;DHT22;24474;48.906;8.808;2023-02-01T17:41:33;5.80;99.90
38726;DHT22;24474;48.906;8.808;2023-02-01T17:43:59;5.80;99.90
38726;DHT22;24474;48.906;8.808;2023-02-01T17:46:24;5.70;99.90
38726;DHT22;24474;48.906;8.808;2023-02-01T17:48:54;5.70;99.90
38726;DHT22;24474;48.906;8.808;2023-02-01T17:51:25;5.70;99.90
38726;DHT22;24474;48.906;8.808;2023-02-01T17:53:52;5.70;99.90
38726;DHT22;24474;48.906;8.808;2023-02-01T17:56:20;5.70;99.90
38726;DHT22;24474;48.906;8.808;2023-02-01T17:58:47;5.70;99.90
38726;DHT22;24474;48.906;8.808;2023-02-01T18:01:21;5.70;99.90
38726;DHT22;24474;48.906;8.808;2023-02-01T18:03:47;5.70;99.90
38726;DHT22;24474;48.906;8.808;2023-02-01T18:06:16;5.70;99.90
38726;DHT22;24474;48.906;8.808;2023-02-01T18:08:42;5.70;99.90
38726;DHT22;24474;48.906;8.808;2023-02-01T18:11:17;5.70;99.90
38726;DHT22;24474;48.906;8.808;2023-02-01T18:13:43;5.70;99.90
38726;DHT22;24474;48.906;8.808;2023-02-01T18:16:30;5.70;99.90
38726;DHT22;24474;48.906;8.808;2023-02-01T18:19:01;5.70;99.90
38726;DHT22;24474;48.906;8.808;2023-02-01T18:21:37;5.70;99.90
38726;DHT22;24474;48.906;8.808;2023-02-01T18:24:07;5.70;99.90
38726;DHT22;24474;48.906;8.808;2023-02-01T18:26:43;5.70;99.90
38726;DHT22;24474;48.906;8.808;2023-02-01T18:29:11;5.70;99.90
38726;DHT22;24474;48.906;8.808;2023-02-01T18:31:44;5.70;99.90
38726;DHT22;24474;48.906;8.808;2023-02-01T18:34:10;5.70;99.90
38726;DHT22;24474;48.906;8.808;2023-02-01T18:36:41;5.80;99.90
38726;DHT22;24474;48.906;8.808;2023-02-01T18:39:07;5.90;99.90
38726;DHT22;24474;48.906;8.808;2023-02-01T18:41:32;5.80;99.90
38726;DHT22;24474;48.906;8.808;2023-02-01T18:44:00;5.80;99.90
38726;DHT22;24474;48.906;8.808;2023-02-01T18:46:25;5.80;99.90
38726;DHT22;24474;48.906;8.808;2023-02-01T18:48:57;5.80;99.90
38726;DHT22;24474;48.906;8.808;2023-02-01T18:51:22;5.80;99.90